Belmont, Montana
Current Conditions -  °F | °C
As of 9:35 PM on Monday 20 Oct 2014 (Local Time) from KMVH Reporting Station
Clear Clear  
Wind Chill: 55°   Ceiling: Unl
Heat Index: 55°   Visibility: 10mi
Dew Point: 32°   Wind: 7mph
Humidity: 41%   Direction: 270°W
Pressure: 29.86"   Gusts: NA
Location:  46.4448°N, 109.102°W
Report Text: KMVH 210335Z AUTO 27006KT 10SM CLR 13/M00 A2986 RMK A01
Loading
Personal Weather Stations






























Interactive Weather Map
Tropical Storm Tracking
New forecast layout! Learn more

10-Day Weather Forecast

Advertisements
Track Severe Weather on mobile